createdAt,value
2023-03-05T00:01:30.733Z,71.61
2023-03-05T00:03:58.820Z,71.70
2023-03-05T00:06:29.162Z,71.89
2023-03-05T00:08:58.516Z,72.51
2023-03-05T00:11:33.448Z,72.57
2023-03-05T00:14:03.533Z,72.60
2023-03-05T00:16:31.901Z,72.90
2023-03-05T00:19:04.614Z,73.07
2023-03-05T00:21:35.347Z,73.05
2023-03-05T00:24:05.194Z,73.30
2023-03-05T00:26:39.086Z,72.98
2023-03-05T00:29:08.400Z,72.96
2023-03-05T00:31:37.819Z,73.22
2023-03-05T00:34:08.681Z,72.68
2023-03-05T00:36:40.107Z,73.14
2023-03-05T00:39:08.538Z,73.33
2023-03-05T00:41:37.921Z,73.73
2023-03-05T00:44:06.257Z,73.45
2023-03-05T00:46:34.586Z,73.43
2023-03-05T00:49:02.427Z,73.68
2023-03-05T00:51:30.605Z,73.38
2023-03-05T00:53:58.562Z,73.25
2023-03-05T00:56:26.826Z,73.46
2023-03-05T00:58:56.215Z,73.30
2023-03-05T01:01:24.334Z,73.30
2023-03-05T01:03:52.327Z,73.82
2023-03-05T01:06:20.612Z,73.98
2023-03-05T01:08:48.459Z,74.16
2023-03-05T01:11:16.268Z,74.16
2023-03-05T01:13:44.239Z,73.85
2023-03-05T01:16:13.592Z,74.09
2023-03-05T01:18:43.164Z,74.07
2023-03-05T01:21:11.559Z,73.48
2023-03-05T01:23:39.468Z,73.85
2023-03-05T01:26:08.644Z,73.88
2023-03-05T01:28:38.255Z,73.86
2023-03-05T01:31:09.002Z,73.84
2023-03-05T01:33:38.496Z,73.49
2023-03-05T01:36:13.949Z,73.15
2023-03-05T01:38:41.977Z,73.29
2023-03-05T01:41:09.972Z,73.21
2023-03-05T01:43:38.261Z,73.59
2023-03-05T01:46:36.560Z,73.27
2023-03-05T01:49:13.382Z,73.87
2023-03-05T01:51:46.918Z,73.88
2023-03-05T01:54:17.879Z,74.82
2023-03-05T01:56:47.110Z,74.52
2023-03-05T01:59:15.637Z,75.03
2023-03-05T02:01:47.576Z,74.68
2023-03-05T02:04:19.900Z,74.82
2023-03-05T02:06:48.194Z,74.44
2023-03-05T02:09:16.077Z,74.97
2023-03-05T02:11:44.281Z,74.59
2023-03-05T02:14:12.202Z,74.52
2023-03-05T02:16:40.519Z,74.37
2023-03-05T02:19:10.640Z,74.98
2023-03-05T02:21:41.314Z,74.78
2023-03-05T02:24:12.782Z,75.25
2023-03-05T02:26:41.067Z,75.25
2023-03-05T02:29:11.547Z,74.97
2023-03-05T02:31:39.353Z,75.44
2023-03-05T02:34:07.699Z,75.47
2023-03-05T02:36:35.574Z,75.12
2023-03-05T02:39:05.625Z,74.89
2023-03-05T02:41:33.656Z,74.82
2023-03-05T02:44:01.667Z,74.90
2023-03-05T02:46:29.742Z,75.23
2023-03-05T02:48:57.663Z,75.22
2023-03-05T02:51:25.541Z,75.46
2023-03-05T02:53:53.423Z,74.87
2023-03-05T02:56:22.678Z,75.08
2023-03-05T02:58:50.645Z,75.07
2023-03-05T03:01:18.583Z,74.91
2023-03-05T03:03:46.908Z,75.01
2023-03-05T03:06:14.786Z,75.14
2023-03-05T03:08:42.726Z,75.14
2023-03-05T03:11:13.480Z,75.20
2023-03-05T03:13:42.834Z,75.21
2023-03-05T03:16:13.598Z,74.95
2023-03-05T03:18:41.582Z,74.93
2023-03-05T03:21:09.488Z,74.95
2023-03-05T03:23:37.361Z,75.29
2023-03-05T03:26:05.332Z,74.75
2023-03-05T03:28:33.175Z,75.35
2023-03-05T03:31:02.524Z,75.62
2023-03-05T03:33:30.362Z,75.52
2023-03-05T03:35:58.263Z,76.14
2023-03-05T03:38:26.217Z,76.28
2023-03-05T03:40:53.968Z,76.46
2023-03-05T03:43:21.878Z,75.76
2023-03-05T03:45:49.723Z,76.16
2023-03-05T03:48:19.136Z,76.57
2023-03-05T03:50:46.927Z,76.50
2023-03-05T03:53:14.958Z,77.18
2023-03-05T03:55:43.984Z,77.15
2023-03-05T03:58:11.868Z,77.09
2023-03-05T04:00:40.583Z,77.95
2023-03-05T04:03:08.615Z,77.53
2023-03-05T04:05:37.921Z,78.48
2023-03-05T04:08:08.487Z,78.28
2023-03-05T04:10:36.341Z,78.25
2023-03-05T04:13:04.352Z,78.51
2023-03-05T04:15:32.204Z,78.82
2023-03-05T04:18:00.219Z,79.31
2023-03-05T04:20:28.142Z,78.79
2023-03-05T04:22:57.307Z,79.28
2023-03-05T04:25:25.225Z,78.88
2023-03-05T04:27:53.295Z,78.86
2023-03-05T04:30:21.519Z,78.88
2023-03-05T04:32:49.346Z,79.06
2023-03-05T04:35:17.403Z,78.85
2023-03-05T04:40:38.569Z,79.43
2023-03-05T04:43:07.128Z,79.34
2023-03-05T04:45:35.207Z,79.49
2023-03-05T04:48:03.477Z,79.56
2023-03-05T04:50:31.275Z,79.56
2023-03-05T04:53:00.477Z,79.66
2023-03-05T04:55:28.630Z,79.48
2023-03-05T04:57:58.046Z,79.33
2023-03-05T05:00:26.006Z,79.24
2023-03-05T05:02:54.621Z,79.13
2023-03-05T05:05:24.695Z,79.31
2023-03-05T05:07:55.393Z,79.03
2023-03-05T05:10:23.863Z,78.88
2023-03-05T05:12:51.704Z,79.00
2023-03-05T05:15:21.378Z,79.23
2023-03-05T05:17:49.722Z,78.99
2023-03-05T05:20:18.482Z,79.29
2023-03-05T05:22:46.397Z,78.83
2023-03-05T05:25:14.252Z,78.81
2023-03-05T05:27:42.328Z,78.76
2023-03-05T05:30:11.706Z,78.67
2023-03-05T05:32:41.127Z,78.71
2023-03-05T05:35:09.665Z,78.74
2023-03-05T05:37:37.522Z,78.32
2023-03-05T05:40:06.672Z,78.55
2023-03-05T05:42:34.538Z,78.32
2023-03-05T05:45:03.373Z,78.35
2023-03-05T05:47:31.375Z,77.95
2023-03-05T05:50:00.574Z,77.88
2023-03-05T05:52:28.680Z,77.77
2023-03-05T05:54:56.400Z,77.76
2023-03-05T05:57:24.958Z,77.85
2023-03-05T05:59:53.167Z,77.97
2023-03-05T06:02:21.003Z,77.80
2023-03-05T06:04:48.800Z,77.52
2023-03-05T06:07:18.099Z,77.77
2023-03-05T06:09:46.071Z,77.69
2023-03-05T06:12:13.909Z,77.71
2023-03-05T06:14:41.712Z,77.28
2023-03-05T06:17:11.294Z,77.44
2023-03-05T06:19:40.550Z,77.28
2023-03-05T06:22:08.846Z,76.93
2023-03-05T06:24:38.951Z,77.24
2023-03-05T06:27:07.258Z,77.14
2023-03-05T06:29:35.038Z,77.18
2023-03-05T06:32:02.838Z,77.43
2023-03-05T06:34:30.656Z,77.51
2023-03-05T06:36:58.519Z,77.22
2023-03-05T06:39:26.465Z,77.54
2023-03-05T06:41:55.665Z,77.18
2023-03-05T06:44:23.409Z,77.49
2023-03-05T06:46:51.255Z,77.06
2023-03-05T06:49:20.144Z,77.50
2023-03-05T06:51:48.235Z,76.81
2023-03-05T06:54:18.122Z,77.47
2023-03-05T06:56:47.364Z,77.47
2023-03-05T06:59:18.054Z,77.76
2023-03-05T07:01:46.486Z,77.38
2023-03-05T07:04:15.487Z,77.33
2023-03-05T07:06:44.308Z,77.46
2023-03-05T07:09:15.456Z,77.56
2023-03-05T07:11:43.615Z,77.23
2023-03-05T07:14:11.421Z,77.23
2023-03-05T07:16:40.710Z,76.77
2023-03-05T07:19:10.933Z,76.70
2023-03-05T07:21:40.012Z,76.46
2023-03-05T07:24:09.377Z,76.75
2023-03-05T07:26:41.410Z,76.54
2023-03-05T07:29:09.443Z,76.90
2023-03-05T07:31:37.994Z,77.09
2023-03-05T07:34:07.264Z,76.97
2023-03-05T07:36:35.446Z,76.71
2023-03-05T07:39:06.583Z,76.79
2023-03-05T07:41:34.456Z,76.66
2023-03-05T07:44:02.308Z,77.02
2023-03-05T07:46:33.577Z,77.40
2023-03-05T07:49:01.447Z,77.56
2023-03-05T07:51:31.664Z,77.41
2023-03-05T07:54:00.060Z,77.01
2023-03-05T07:56:31.824Z,77.42
2023-03-05T07:58:59.898Z,76.75
2023-03-05T08:01:28.516Z,76.89
2023-03-05T08:03:56.444Z,76.89
2023-03-05T08:06:24.298Z,76.17
2023-03-05T08:08:56.423Z,76.33
2023-03-05T08:11:24.311Z,76.26
2023-03-05T08:13:52.339Z,75.81
2023-03-05T08:16:21.951Z,76.29
2023-03-05T08:18:50.019Z,76.72
2023-03-05T08:21:19.639Z,76.90
2023-03-05T08:23:47.746Z,77.17
2023-03-05T08:26:19.719Z,76.96
2023-03-05T08:28:48.027Z,76.55
2023-03-05T08:31:18.643Z,76.37
2023-03-05T08:33:46.511Z,76.43
2023-03-05T08:36:14.354Z,76.71
2023-03-05T08:38:44.492Z,76.76
2023-03-05T08:41:14.734Z,77.00
2023-03-05T08:43:44.252Z,76.71
2023-03-05T08:46:13.718Z,77.36
2023-03-05T08:48:41.931Z,77.23
2023-03-05T08:51:12.770Z,77.54
2023-03-05T08:53:40.660Z,77.85
2023-03-05T08:56:09.486Z,77.55
2023-03-05T08:58:38.175Z,78.16
2023-03-05T09:01:07.998Z,77.15
2023-03-05T09:03:36.128Z,77.49
2023-03-05T09:06:08.069Z,77.14
2023-03-05T09:08:36.769Z,77.27
2023-03-05T09:11:05.463Z,76.79
2023-03-05T09:13:34.097Z,76.95
2023-03-05T09:16:04.392Z,76.67
2023-03-05T09:18:36.589Z,76.59
2023-03-05T09:21:06.508Z,75.89
2023-03-05T09:23:35.216Z,75.41
2023-03-05T09:26:03.347Z,75.13
2023-03-05T09:28:31.235Z,74.74
2023-03-05T09:30:59.047Z,74.60
2023-03-05T09:33:28.211Z,74.30
2023-03-05T09:35:57.676Z,73.15
2023-03-05T09:38:25.988Z,73.24
2023-03-05T09:41:02.472Z,72.94
2023-03-05T09:43:38.637Z,72.67
2023-03-05T09:46:17.358Z,72.54
2023-03-05T09:48:52.935Z,73.19
2023-03-05T09:51:29.001Z,70.27
2023-03-05T09:54:03.196Z,69.20
2023-03-05T09:56:33.305Z,68.97
2023-03-05T09:59:19.868Z,69.08
2023-03-05T10:01:50.058Z,69.05
2023-03-05T10:04:22.566Z,69.38
2023-03-05T10:06:53.793Z,69.48
2023-03-05T10:09:32.998Z,69.66
2023-03-05T10:12:04.465Z,69.79
2023-03-05T10:14:35.324Z,69.49
2023-03-05T10:17:25.391Z,68.22
2023-03-05T10:20:25.195Z,69.69
2023-03-05T10:23:33.023Z,68.81
2023-03-05T10:26:07.920Z,67.30
2023-03-05T10:28:43.973Z,65.61
2023-03-05T10:31:28.768Z,66.76
2023-03-05T10:34:21.270Z,67.11
2023-03-05T10:37:01.005Z,67.67
2023-03-05T10:39:51.534Z,67.76
2023-03-05T10:42:31.006Z,67.77
2023-03-05T10:45:00.101Z,67.88
2023-03-05T10:47:31.262Z,68.17
2023-03-05T10:50:00.385Z,69.10
2023-03-05T10:52:36.301Z,69.63
2023-03-05T10:55:15.722Z,69.92
2023-03-05T10:57:44.027Z,70.44
2023-03-05T11:00:19.695Z,70.16
2023-03-05T11:02:56.791Z,70.00
2023-03-05T11:05:48.798Z,68.82
2023-03-05T11:08:31.714Z,68.81
2023-03-05T11:11:17.157Z,67.63
2023-03-05T11:13:58.191Z,67.17
2023-03-05T11:16:28.731Z,66.63
2023-03-05T11:19:19.781Z,66.49
2023-03-05T11:22:05.561Z,66.07
2023-03-05T11:24:33.887Z,66.04
2023-03-05T11:27:03.295Z,64.83
2023-03-05T11:29:34.730Z,64.00
2023-03-05T11:32:18.633Z,63.90
2023-03-05T11:34:49.395Z,63.36
2023-03-05T11:37:24.380Z,62.91
2023-03-05T11:40:16.163Z,62.06
2023-03-05T11:42:45.738Z,61.37
2023-03-05T11:45:18.171Z,60.98
2023-03-05T11:47:48.876Z,61.25
2023-03-05T11:50:26.225Z,61.12
2023-03-05T11:53:02.063Z,60.37
2023-03-05T11:55:33.949Z,60.78
2023-03-05T11:58:21.626Z,60.32
2023-03-05T12:00:52.759Z,60.01
2023-03-05T12:03:40.245Z,59.05
2023-03-05T12:06:15.948Z,59.23
2023-03-05T12:08:48.259Z,59.19
2023-03-05T12:11:20.532Z,58.87
2023-03-05T12:13:53.805Z,57.94
2023-03-05T12:16:32.424Z,58.96
2023-03-05T12:19:16.839Z,59.08
2023-03-05T12:21:51.128Z,58.95
2023-03-05T12:24:38.396Z,59.02
2023-03-05T12:27:18.337Z,58.62
2023-03-05T12:29:50.739Z,59.03
2023-03-05T12:32:58.393Z,58.03
2023-03-05T12:35:30.617Z,57.96
2023-03-05T12:38:17.163Z,57.74
2023-03-05T12:40:52.163Z,58.43
2023-03-05T12:43:32.006Z,59.10
2023-03-05T12:46:29.066Z,59.33
2023-03-05T12:48:57.016Z,58.88
2023-03-05T12:51:37.780Z,58.32
2023-03-05T12:54:28.049Z,58.68
2023-03-05T12:56:58.209Z,59.25
2023-03-05T12:59:33.516Z,58.80
2023-03-05T13:02:10.889Z,57.63
2023-03-05T13:04:46.866Z,57.17
2023-03-05T13:07:18.046Z,57.81
2023-03-05T13:09:53.750Z,58.11
2023-03-05T13:12:22.093Z,57.84
2023-03-05T13:14:59.058Z,57.62
2023-03-05T13:17:38.240Z,57.85
2023-03-05T13:20:28.868Z,56.65
2023-03-05T13:23:14.358Z,57.11
2023-03-05T13:25:42.260Z,56.20
2023-03-05T13:28:14.116Z,57.00
2023-03-05T13:30:47.232Z,57.73
2023-03-05T13:33:20.487Z,56.17
2023-03-05T13:35:48.664Z,56.52
2023-03-05T13:38:24.539Z,57.61
2023-03-05T13:41:08.410Z,57.96
2023-03-05T13:43:44.018Z,58.12
2023-03-05T13:46:12.126Z,58.23
2023-03-05T13:48:41.598Z,57.81
2023-03-05T13:51:09.693Z,58.24
2023-03-05T13:53:37.689Z,56.91
2023-03-05T13:56:07.847Z,57.57
2023-03-05T13:58:47.343Z,57.52
2023-03-05T14:01:24.140Z,57.51
2023-03-05T14:03:56.222Z,57.28
2023-03-05T14:06:27.847Z,57.35
2023-03-05T14:09:04.026Z,57.65
2023-03-05T14:11:31.918Z,58.34
2023-03-05T14:14:06.820Z,58.38
2023-03-05T14:16:35.409Z,57.35
2023-03-05T14:19:07.257Z,57.23
2023-03-05T14:21:47.514Z,57.71
2023-03-05T14:24:22.212Z,57.51
2023-03-05T14:26:53.033Z,58.07
2023-03-05T14:29:24.644Z,57.99
2023-03-05T14:31:55.481Z,58.10
2023-03-05T14:34:28.995Z,58.07
2023-03-05T14:37:00.305Z,56.98
2023-03-05T14:39:38.028Z,57.57
2023-03-05T14:42:29.261Z,57.28
2023-03-05T14:44:59.224Z,57.41
2023-03-05T14:47:28.257Z,56.79
2023-03-05T14:49:57.956Z,57.22
2023-03-05T14:52:28.277Z,56.73
2023-03-05T14:54:56.790Z,56.61
2023-03-05T14:57:28.230Z,56.25
2023-03-05T14:59:56.676Z,56.41
2023-03-05T15:02:26.783Z,56.34
2023-03-05T15:04:54.905Z,55.98
2023-03-05T15:07:28.135Z,56.08
2023-03-05T15:09:56.141Z,54.85
2023-03-05T15:12:24.648Z,54.75
2023-03-05T15:14:53.402Z,55.58
2023-03-05T15:17:23.510Z,55.32
2023-03-05T15:19:51.732Z,54.91
2023-03-05T15:22:19.513Z,55.16
2023-03-05T15:24:48.800Z,55.20
2023-03-05T15:27:16.618Z,55.06
2023-03-05T15:29:45.370Z,55.76
2023-03-05T15:32:14.771Z,55.99
2023-03-05T15:34:45.937Z,57.33
2023-03-05T15:37:16.130Z,57.20
2023-03-05T15:39:44.344Z,57.29
2023-03-05T15:42:17.632Z,58.12
2023-03-05T15:44:45.909Z,57.91
2023-03-05T15:47:14.200Z,58.01
2023-03-05T15:49:42.485Z,58.39
2023-03-05T15:52:10.659Z,58.69
2023-03-05T15:54:38.931Z,58.36
2023-03-05T15:57:10.672Z,58.47
2023-03-05T15:59:40.687Z,58.28
2023-03-05T16:02:09.287Z,58.32
2023-03-05T16:04:39.599Z,58.78
2023-03-05T16:07:22.885Z,58.88
2023-03-05T16:09:53.110Z,58.21
2023-03-05T16:12:28.104Z,58.37
2023-03-05T16:14:58.088Z,57.89
2023-03-05T16:17:31.263Z,57.85
2023-03-05T16:20:01.544Z,58.13
2023-03-05T16:22:31.659Z,57.87
2023-03-05T16:25:01.452Z,58.01
2023-03-05T16:27:31.949Z,57.59
2023-03-05T16:30:01.526Z,57.59
2023-03-05T16:32:29.820Z,57.38
2023-03-05T16:35:01.163Z,57.59
2023-03-05T16:37:36.838Z,57.89
2023-03-05T16:40:05.723Z,58.12
2023-03-05T16:42:33.886Z,58.69
2023-03-05T16:45:05.818Z,58.09
2023-03-05T16:47:35.592Z,58.51
2023-03-05T16:50:05.220Z,58.18
2023-03-05T16:52:33.301Z,58.07
2023-03-05T16:55:01.535Z,58.18
2023-03-05T16:57:29.744Z,57.78
2023-03-05T16:59:58.633Z,57.49
2023-03-05T17:02:27.932Z,57.39
2023-03-05T17:04:58.003Z,57.87
2023-03-05T17:07:26.673Z,57.72
2023-03-05T17:09:55.046Z,57.53
2023-03-05T17:12:23.991Z,58.34
2023-03-05T17:14:56.504Z,58.18
2023-03-05T17:17:24.662Z,58.14
2023-03-05T17:19:54.531Z,58.31
2023-03-05T17:22:25.146Z,58.30
2023-03-05T17:24:54.063Z,58.38
2023-03-05T17:27:23.139Z,58.67
2023-03-05T17:29:51.305Z,58.52
2023-03-05T17:32:21.197Z,58.77
2023-03-05T17:34:59.823Z,59.04
2023-03-05T17:37:55.981Z,58.39
2023-03-05T17:40:23.357Z,59.08
2023-03-05T17:42:59.365Z,58.94
2023-03-05T17:45:28.505Z,58.92
2023-03-05T17:47:58.608Z,58.89
2023-03-05T17:50:27.778Z,58.61
2023-03-05T17:52:59.834Z,58.86
2023-03-05T17:55:28.598Z,58.82
2023-03-05T17:57:56.559Z,59.24
2023-03-05T18:00:27.788Z,58.81
2023-03-05T18:02:56.429Z,59.00
2023-03-05T18:05:25.513Z,59.26
2023-03-05T18:07:54.997Z,59.46
2023-03-05T18:10:26.037Z,59.37
2023-03-05T18:12:54.044Z,59.20
2023-03-05T18:15:24.862Z,59.28
2023-03-05T18:17:53.837Z,59.46
2023-03-05T18:20:28.879Z,59.33
2023-03-05T18:22:57.228Z,60.06
2023-03-05T18:25:31.330Z,59.76
2023-03-05T18:28:00.129Z,59.80
2023-03-05T18:30:28.411Z,60.32
2023-03-05T18:32:56.928Z,60.40
2023-03-05T18:35:25.109Z,60.60
2023-03-05T18:37:53.756Z,61.55
2023-03-05T18:40:23.885Z,61.63
2023-03-05T18:42:54.046Z,61.87
2023-03-05T18:45:23.977Z,62.32
2023-03-05T18:47:54.249Z,63.04
2023-03-05T18:50:27.794Z,63.20
2023-03-05T18:52:55.921Z,63.74
2023-03-05T18:55:26.414Z,63.66
2023-03-05T18:57:57.044Z,64.00
2023-03-05T19:00:27.490Z,63.98
2023-03-05T19:02:59.016Z,64.49
2023-03-05T19:05:31.182Z,64.66
2023-03-05T19:08:01.984Z,65.06
2023-03-05T19:10:30.303Z,65.10
2023-03-05T19:13:15.879Z,64.98
2023-03-05T19:15:44.904Z,65.49
2023-03-05T19:18:13.463Z,65.64
2023-03-05T19:20:43.977Z,65.84
2023-03-05T19:23:12.278Z,66.04
2023-03-05T19:25:41.760Z,66.44
2023-03-05T19:28:11.688Z,66.05
2023-03-05T19:30:39.888Z,66.21
2023-03-05T19:33:10.273Z,66.33
2023-03-05T19:35:38.910Z,66.89
2023-03-05T19:38:08.647Z,66.77
2023-03-05T19:40:41.116Z,67.06
2023-03-05T19:43:10.464Z,67.48
2023-03-05T19:45:38.791Z,67.41
2023-03-05T19:48:26.324Z,67.59
2023-03-05T19:51:18.136Z,67.92
2023-03-05T19:54:18.866Z,67.74
2023-03-05T19:57:11.590Z,67.96
2023-03-05T19:59:58.625Z,68.24
2023-03-05T20:02:28.547Z,68.61
2023-03-05T20:05:36.978Z,68.04
2023-03-05T20:08:28.241Z,68.52
2023-03-05T20:11:26.886Z,68.77
2023-03-05T20:13:59.847Z,68.85
2023-03-05T20:20:39.918Z,69.18
2023-03-05T20:26:40.610Z,69.50
2023-03-05T20:29:28.846Z,69.29
2023-03-05T20:32:13.319Z,68.93
2023-03-05T20:34:44.440Z,69.56
2023-03-05T20:37:13.925Z,69.60
2023-03-05T20:39:42.240Z,69.61
2023-03-05T20:42:13.187Z,70.22
2023-03-05T20:44:42.594Z,70.23
2023-03-05T20:47:26.226Z,70.08
2023-03-05T20:49:55.805Z,70.17
2023-03-05T20:52:28.309Z,70.47
2023-03-05T20:54:56.045Z,70.07
2023-03-05T20:57:25.864Z,70.32
2023-03-05T20:59:54.228Z,70.86
2023-03-05T21:02:24.108Z,70.84
2023-03-05T21:04:53.398Z,70.71
2023-03-05T21:07:21.328Z,71.11
2023-03-05T21:09:50.715Z,71.25
2023-03-05T21:12:18.593Z,71.20
2023-03-05T21:14:47.544Z,71.12
2023-03-05T21:17:15.525Z,71.36
2023-03-05T21:19:43.449Z,71.14
2023-03-05T21:22:11.261Z,71.37
2023-03-05T21:24:55.623Z,71.47
2023-03-05T21:27:26.253Z,71.88
2023-03-05T21:29:54.149Z,71.62
2023-03-05T21:32:22.060Z,71.53
2023-03-05T21:34:52.807Z,71.28
2023-03-05T21:37:20.662Z,71.29
2023-03-05T21:39:48.440Z,71.42
2023-03-05T21:42:16.232Z,71.75
2023-03-05T21:44:45.369Z,71.44
2023-03-05T21:47:13.145Z,71.48
2023-03-05T21:49:40.929Z,71.33
2023-03-05T21:52:11.606Z,71.20
2023-03-05T21:54:39.912Z,71.34
2023-03-05T21:57:11.694Z,71.22
2023-03-05T21:59:40.767Z,71.35
2023-03-05T22:02:12.568Z,71.62
2023-03-05T22:04:40.376Z,71.61
2023-03-05T22:07:08.508Z,71.50
2023-03-05T22:09:36.493Z,71.52
2023-03-05T22:12:05.454Z,71.50
2023-03-05T22:14:33.164Z,71.86
2023-03-05T22:17:02.138Z,71.86
2023-03-05T22:19:31.647Z,72.41
2023-03-05T22:21:59.437Z,72.70
2023-03-05T22:24:27.331Z,72.85
2023-03-05T22:26:55.208Z,73.42
2023-03-05T22:29:23.122Z,73.38
2023-03-05T22:31:50.899Z,73.75
2023-03-05T22:34:18.641Z,73.79
2023-03-05T22:36:48.429Z,74.04
2023-03-05T22:39:16.257Z,74.68
2023-03-05T22:41:44.130Z,74.04
2023-03-05T22:44:11.916Z,74.66
2023-03-05T22:46:39.696Z,74.62
2023-03-05T22:49:07.533Z,74.55
2023-03-05T22:51:35.349Z,74.77
2023-03-05T22:54:04.645Z,74.29
2023-03-05T22:56:32.432Z,74.79
2023-03-05T22:59:00.299Z,74.84
2023-03-05T23:01:28.150Z,75.06
2023-03-05T23:04:08.005Z,74.61
2023-03-05T23:06:35.894Z,74.87
2023-03-05T23:09:05.299Z,74.94
2023-03-05T23:11:33.118Z,75.31
2023-03-05T23:14:00.955Z,75.21
2023-03-05T23:16:28.716Z,75.14
2023-03-05T23:18:56.590Z,75.19
2023-03-05T23:21:24.376Z,75.63
2023-03-05T23:23:53.090Z,75.51
2023-03-05T23:26:22.314Z,75.31
2023-03-05T23:28:50.118Z,75.86
2023-03-05T23:31:18.805Z,75.60
2023-03-05T23:33:46.774Z,75.66
2023-03-05T23:36:14.868Z,76.04
2023-03-05T23:38:42.769Z,76.15
2023-03-05T23:41:10.572Z,75.73
2023-03-05T23:43:39.889Z,75.47
2023-03-05T23:46:11.989Z,75.74
2023-03-05T23:48:39.876Z,75.67
2023-03-05T23:51:10.358Z,75.93
2023-03-05T23:53:38.679Z,75.95
2023-03-05T23:56:10.606Z,75.79
2023-03-05T23:58:40.410Z,75.92
